Time;durP1;ratioP1;P1;durP2;ratioP2;P2;SDS_P1;SDS_P2;PMS_P1;PMS_P2;Temp;Humidity;BMP_temperature;BMP_pressure;BME280_temperature;BME280_humidity;BME280_pressure;Samples;Min_cycle;Max_cycle;Signal;HPM_P1;HPM_P2
2022/11/10 00:00:21;;;;;;;22.88;5.90;;;;;;;8.53;100.00;101548.94;5059026;28;20051;-74
2022/11/10 00:03:08;;;;;;;24.60;5.40;;;;;;;8.46;100.00;101552.78;5055720;28;20079;-75
2022/11/10 00:05:52;;;;;;;23.95;6.40;;;;;;;8.54;100.00;101556.84;5058669;28;20087;-76
2022/11/10 00:08:36;;;;;;;18.02;5.15;;;;;;;8.41;100.00;101566.28;5059067;28;20055;-74
2022/11/10 00:11:20;;;;;;;32.72;6.65;;;;;;;8.36;100.00;101581.56;5057145;28;20047;-74
2022/11/10 00:17:08;;;;;;;;;;;;;;;8.29;100.00;101572.94;5056292;28;20182;-75
2022/11/10 00:19:52;;;;;;;18.65;5.57;;;;;;;8.27;100.00;101569.47;5058130;28;19923;-74
2022/11/10 00:22:38;;;;;;;23.30;5.95;;;;;;;8.14;100.00;101567.41;5059493;28;20140;-75
2022/11/10 00:25:23;;;;;;;42.53;8.93;;;;;;;8.29;100.00;101574.75;5060828;28;20047;-75
2022/11/10 00:28:07;;;;;;;22.50;8.02;;;;;;;8.23;100.00;101578.53;5057674;28;20035;-74
2022/11/10 00:30:51;;;;;;;23.48;6.10;;;;;;;8.18;100.00;101585.81;5059497;28;20038;-74
2022/11/10 00:33:37;;;;;;;15.73;4.68;;;;;;;8.15;100.00;101585.94;5061225;28;20042;-74
2022/11/10 00:36:21;;;;;;;25.73;6.95;;;;;;;8.21;100.00;101587.47;5042121;28;20060;-75
2022/11/10 00:39:05;;;;;;;31.95;7.20;;;;;;;8.22;100.00;101582.09;5061440;28;20622;-76
2022/11/10 00:41:49;;;;;;;26.00;5.40;;;;;;;8.07;100.00;101580.06;5060822;28;20047;-76
2022/11/10 00:44:33;;;;;;;24.48;6.07;;;;;;;8.07;100.00;101585.38;5052171;28;20118;-77
2022/11/10 00:47:17;;;;;;;15.70;5.43;;;;;;;8.04;100.00;101586.38;5057422;28;20125;-75
2022/11/10 00:50:02;;;;;;;25.08;5.47;;;;;;;7.99;100.00;101595.47;5047282;28;20568;-76
2022/11/10 00:52:46;;;;;;;17.73;5.35;;;;;;;7.93;100.00;101593.94;5058352;28;20098;-75
2022/11/10 00:55:30;;;;;;;30.42;5.80;;;;;;;7.96;100.00;101595.59;5059121;28;20747;-77
2022/11/10 00:58:14;;;;;;;26.65;6.80;;;;;;;7.98;100.00;101594.63;5059549;28;20126;-75
2022/11/10 01:01:01;;;;;;;29.88;6.43;;;;;;;8.00;100.00;101602.50;5055389;28;20097;-76
2022/11/10 01:03:44;;;;;;;19.77;6.05;;;;;;;7.93;100.00;101595.69;5060938;28;20078;-76
2022/11/10 01:06:28;;;;;;;23.10;6.93;;;;;;;7.88;100.00;101606.53;5058770;28;20054;-75
2022/11/10 01:09:13;;;;;;;26.35;5.22;;;;;;;7.93;100.00;101615.19;5056051;28;20536;-76
2022/11/10 01:11:57;;;;;;;26.33;5.45;;;;;;;7.98;100.00;101609.66;5058244;28;20079;-75
2022/11/10 01:14:41;;;;;;;27.48;4.90;;;;;;;8.03;100.00;101613.00;5060078;28;20052;-76
2022/11/10 01:17:25;;;;;;;20.25;6.15;;;;;;;8.09;100.00;101619.88;5057261;28;20048;-75
2022/11/10 01:20:09;;;;;;;27.45;5.57;;;;;;;8.05;100.00;101612.00;5055238;28;20047;-75
2022/11/10 01:22:53;;;;;;;28.13;5.07;;;;;;;8.09;100.00;101626.03;5055991;28;20043;-76
2022/11/10 01:25:37;;;;;;;20.98;5.93;;;;;;;8.15;100.00;101632.91;5061420;28;20055;-76
2022/11/10 01:28:21;;;;;;;21.27;6.43;;;;;;;8.10;100.00;101650.81;5061119;28;20582;-75
2022/11/10 01:31:11;;;;;;;22.02;7.43;;;;;;;8.01;100.00;101641.41;5057934;28;20074;-76
2022/11/10 01:33:57;;;;;;;26.83;6.70;;;;;;;8.09;100.00;101647.28;5059315;28;20059;-76
2022/11/10 01:36:41;;;;;;;27.95;5.82;;;;;;;8.03;100.00;101651.06;5061112;28;20052;-76
2022/11/10 01:39:25;;;;;;;35.67;6.55;;;;;;;8.01;100.00;101654.69;5061096;28;20404;-76
2022/11/10 01:42:09;;;;;;;22.77;5.65;;;;;;;8.07;100.00;101653.59;5060812;28;20087;-75
2022/11/10 01:45:21;;;;;;;36.70;6.20;;;;;;;8.08;100.00;101644.69;5057248;28;20063;-75
2022/11/10 01:48:07;;;;;;;20.15;4.90;;;;;;;8.00;100.00;101652.97;5053193;28;20063;-75
2022/11/10 01:50:54;;;;;;;23.98;6.30;;;;;;;7.98;100.00;101655.69;5058922;28;20079;-75
2022/11/10 01:53:43;;;;;;;21.90;5.78;;;;;;;7.97;100.00;101648.63;5043321;28;20177;-76
2022/11/10 01:56:31;;;;;;;13.10;4.82;;;;;;;7.90;100.00;101648.94;5058353;28;20051;-76
2022/11/10 01:59:21;;;;;;;23.00;6.05;;;;;;;7.88;100.00;101643.72;5058656;28;20096;-75
2022/11/10 02:02:15;;;;;;;33.60;5.70;;;;;;;7.85;100.00;101646.47;5038106;28;20501;-75
2022/11/10 02:05:01;;;;;;;22.55;5.53;;;;;;;7.91;100.00;101642.72;5058222;28;20507;-75
2022/11/10 02:07:45;;;;;;;32.83;5.97;;;;;;;7.97;100.00;101638.00;5058883;28;20048;-75
2022/11/10 02:10:29;;;;;;;25.55;5.68;;;;;;;7.98;100.00;101641.53;5044534;28;20048;-76
2022/11/10 02:13:13;;;;;;;28.80;6.32;;;;;;;7.99;100.00;101649.44;5058911;28;20051;-74
2022/11/10 02:15:57;;;;;;;22.95;4.93;;;;;;;8.01;100.00;101644.94;5060978;28;20047;-75
2022/11/10 02:18:42;;;;;;;24.98;5.97;;;;;;;7.97;100.00;101659.25;5057380;28;20416;-75
2022/11/10 02:21:26;;;;;;;21.10;6.13;;;;;;;8.07;100.00;101666.88;5056505;28;20508;-75
2022/11/10 02:24:10;;;;;;;33.40;7.03;;;;;;;8.09;100.00;101673.00;5060364;28;20562;-76
2022/11/10 02:26:55;;;;;;;19.80;7.57;;;;;;;8.08;100.00;101682.72;5062853;28;20047;-75
2022/11/10 02:29:39;;;;;;;26.83;6.43;;;;;;;8.07;100.00;101686.31;5056550;28;20048;-75
2022/11/10 02:32:23;;;;;;;32.83;7.95;;;;;;;8.00;100.00;101691.00;5053535;28;20056;-75
2022/11/10 02:35:07;;;;;;;28.90;6.78;;;;;;;8.12;100.00;101688.78;5062548;28;20093;-75
2022/11/10 02:37:51;;;;;;;20.33;6.68;;;;;;;8.18;100.00;101694.75;5061410;28;20813;-75
2022/11/10 02:40:35;;;;;;;26.08;6.90;;;;;;;8.16;100.00;101677.13;5050548;28;20052;-74
2022/11/10 02:43:19;;;;;;;33.58;7.10;;;;;;;8.20;100.00;101676.94;5061741;28;20118;-75
2022/11/10 02:46:04;;;;;;;24.58;7.03;;;;;;;8.27;100.00;101669.59;5063955;28;20058;-75
2022/11/10 02:48:48;;;;;;;24.98;6.80;;;;;;;8.24;100.00;101675.91;5063973;28;20055;-75
2022/11/10 02:51:32;;;;;;;33.10;7.78;;;;;;;8.31;100.00;101684.47;5064869;28;20047;-75
2022/11/10 02:54:16;;;;;;;30.02;8.70;;;;;;;8.37;100.00;101683.41;5061530;28;20055;-75
2022/11/10 02:57:01;;;;;;;24.38;7.38;;;;;;;8.28;100.00;101685.50;5066970;28;20056;-76
2022/11/10 02:59:45;;;;;;;35.58;8.10;;;;;;;8.39;100.00;101695.72;5061607;28;20059;-75
2022/11/10 03:02:29;;;;;;;25.15;6.80;;;;;;;8.26;100.00;101687.31;5063882;28;20181;-75
2022/11/10 03:05:15;;;;;;;32.17;8.10;;;;;;;8.25;100.00;101692.72;5061377;28;20047;-75
2022/11/10 03:08:01;;;;;;;25.85;6.50;;;;;;;8.35;100.00;101701.19;5065902;28;20106;-76
2022/11/10 03:10:45;;;;;;;33.97;7.43;;;;;;;8.21;100.00;101712.34;5062105;28;20178;-75
2022/11/10 03:13:30;;;;;;;21.70;6.43;;;;;;;8.24;100.00;101717.56;5064875;28;20135;-75
2022/11/10 03:16:14;;;;;;;30.08;7.57;;;;;;;8.23;100.00;101726.41;5057414;28;20974;-75
2022/11/10 03:18:58;;;;;;;25.08;7.53;;;;;;;8.15;100.00;101725.88;5043535;28;20079;-75
2022/11/10 03:21:42;;;;;;;27.13;8.80;;;;;;;8.12;100.00;101728.63;5057551;28;20192;-75
2022/11/10 03:24:26;;;;;;;27.90;7.85;;;;;;;8.12;100.00;101732.16;5064519;28;20064;-75
2022/11/10 03:27:10;;;;;;;36.38;7.15;;;;;;;8.01;100.00;101737.03;5052489;28;20739;-76
2022/11/10 03:29:54;;;;;;;32.22;7.55;;;;;;;7.96;100.00;101739.84;5049090;28;20044;-75
2022/11/10 03:32:38;;;;;;;25.27;6.22;;;;;;;7.85;100.00;101751.81;5059677;28;20118;-75
2022/11/10 03:35:23;;;;;;;29.23;6.95;;;;;;;7.89;100.00;101746.34;5064333;28;20048;-75
2022/11/10 03:38:06;;;;;;;29.52;6.35;;;;;;;7.87;100.00;101747.31;5062405;28;20520;-76
2022/11/10 03:40:51;;;;;;;34.92;7.32;;;;;;;7.83;100.00;101751.88;5064109;28;20055;-76
2022/11/10 03:43:35;;;;;;;37.33;7.30;;;;;;;7.83;100.00;101753.66;5063635;28;20058;-75
2022/11/10 03:46:19;;;;;;;32.08;8.48;;;;;;;7.90;100.00;101757.81;5062315;28;20068;-75
2022/11/10 03:49:03;;;;;;;35.95;7.97;;;;;;;7.91;100.00;101767.50;5047342;28;20726;-76
2022/11/10 03:51:47;;;;;;;23.45;6.45;;;;;;;7.94;100.00;101762.97;5044667;28;20086;-76
2022/11/10 03:54:30;;;;;;;26.42;7.47;;;;;;;7.91;100.00;101779.00;5060991;28;20039;-75
2022/11/10 03:57:15;;;;;;;26.88;5.93;;;;;;;7.91;100.00;101781.66;5058149;28;20136;-75
2022/11/10 03:59:58;;;;;;;41.58;9.32;;;;;;;7.82;100.00;101786.44;5062610;28;20051;-75
2022/11/10 04:02:42;;;;;;;28.45;7.00;;;;;;;7.95;100.00;101782.41;5062725;28;20118;-75
2022/11/10 04:17:38;;;;;;;23.30;6.90;;;;;;;7.77;100.00;101795.44;5063196;28;20105;-76
2022/11/10 04:20:22;;;;;;;28.20;6.93;;;;;;;7.76;100.00;101803.47;5056583;28;20140;-77
2022/11/10 04:26:28;;;;;;;;;;;;;;;7.70;100.00;101815.16;5055714;28;20106;-78
2022/11/10 04:29:13;;;;;;;24.63;6.68;;;;;;;7.57;100.00;101821.81;5053637;28;19973;-76
2022/11/10 04:31:58;;;;;;;29.40;7.07;;;;;;;7.55;100.00;101830.78;5060635;28;20626;-76
2022/11/10 04:34:42;;;;;;;30.48;6.90;;;;;;;7.51;100.00;101837.97;5058598;28;20598;-75
2022/11/10 04:37:26;;;;;;;30.17;7.85;;;;;;;7.49;100.00;101839.81;5043251;28;20488;-75
2022/11/10 04:40:10;;;;;;;35.45;10.27;;;;;;;7.55;100.00;101859.97;5050592;28;20151;-77
2022/11/10 04:42:54;;;;;;;27.85;6.82;;;;;;;7.52;100.00;101855.63;5053885;28;20121;-78
2022/11/10 04:45:38;;;;;;;30.65;6.78;;;;;;;7.50;100.00;101861.00;5057453;28;20167;-76
2022/11/10 04:48:23;;;;;;;21.40;8.60;;;;;;;7.49;100.00;101869.88;5058497;28;20492;-76
2022/11/10 04:51:08;;;;;;;28.52;7.10;;;;;;;7.57;100.00;101866.94;5057680;28;20070;-75
2022/11/10 04:53:52;;;;;;;27.27;6.13;;;;;;;7.58;100.00;101875.78;5057585;28;20424;-75
2022/11/10 04:56:36;;;;;;;33.95;6.88;;;;;;;7.57;100.00;101872.25;5056652;28;20055;-76
2022/11/10 04:59:20;;;;;;;22.98;7.05;;;;;;;7.64;100.00;101883.56;5053715;28;20075;-75
2022/11/10 05:02:04;;;;;;;28.73;7.05;;;;;;;7.68;100.00;101874.53;5052630;28;20059;-74
2022/11/10 05:04:48;;;;;;;44.55;7.75;;;;;;;7.71;100.00;101870.00;5053133;28;20271;-75
2022/11/10 05:07:32;;;;;;;29.20;6.65;;;;;;;7.68;100.00;101870.13;5055083;28;20099;-75
2022/11/10 05:10:16;;;;;;;27.95;7.32;;;;;;;7.76;100.00;101872.50;5058598;28;20147;-76
2022/11/10 05:13:00;;;;;;;24.75;6.35;;;;;;;7.73;100.00;101878.78;5055839;28;20121;-75
2022/11/10 05:15:44;;;;;;;31.35;6.90;;;;;;;7.76;100.00;101873.34;5056421;28;20121;-76
2022/11/10 05:18:28;;;;;;;34.67;6.45;;;;;;;7.66;100.00;101874.59;5057840;28;20087;-75
2022/11/10 05:21:12;;;;;;;36.78;7.70;;;;;;;7.66;100.00;101879.03;5058933;28;20055;-75
2022/11/10 05:23:56;;;;;;;22.52;6.65;;;;;;;7.66;100.00;101866.63;5059288;28;20519;-74
2022/11/10 05:26:40;;;;;;;38.47;8.30;;;;;;;7.69;100.00;101879.81;5059973;28;20602;-75
2022/11/10 05:29:24;;;;;;;23.75;7.20;;;;;;;7.66;100.00;101882.56;5061208;28;20485;-75
2022/11/10 05:32:08;;;;;;;29.35;7.07;;;;;;;7.66;100.00;101871.06;5058473;28;20047;-75
2022/11/10 05:34:52;;;;;;;36.25;7.63;;;;;;;7.66;100.00;101879.91;5059852;28;20050;-75
2022/11/10 05:37:38;;;;;;;24.45;6.55;;;;;;;7.69;100.00;101876.28;5038535;28;20125;-76
2022/11/10 05:40:23;;;;;;;30.73;6.40;;;;;;;7.72;100.00;101881.47;5041808;28;20075;-75
2022/11/10 05:43:07;;;;;;;21.40;6.28;;;;;;;7.72;100.00;101884.13;5056998;28;20177;-75
2022/11/10 05:45:51;;;;;;;29.92;5.38;;;;;;;7.68;100.00;101886.03;5061027;28;20121;-75
2022/11/10 05:48:35;;;;;;;20.38;5.50;;;;;;;7.62;100.00;101885.38;5056571;28;20133;-76
2022/11/10 05:51:19;;;;;;;31.30;6.75;;;;;;;7.59;100.00;101890.81;5062232;28;20131;-75
2022/11/10 05:54:03;;;;;;;24.05;6.38;;;;;;;7.55;100.00;101897.13;5062675;28;20044;-76
2022/11/10 05:56:47;;;;;;;24.85;6.05;;;;;;;7.59;100.00;101904.06;5060273;28;20611;-75
2022/11/10 05:59:31;;;;;;;28.70;6.25;;;;;;;7.51;100.00;101905.19;5065411;28;20060;-75
2022/11/10 06:02:16;;;;;;;19.48;5.72;;;;;;;7.51;100.00;101909.63;5060628;28;20081;-76
2022/11/10 06:05:00;;;;;;;26.27;5.80;;;;;;;7.55;100.00;101916.56;5057182;28;20107;-75
2022/11/10 06:07:44;;;;;;;35.63;6.28;;;;;;;7.53;100.00;101916.63;5060414;28;20047;-75
2022/11/10 06:10:28;;;;;;;31.92;6.35;;;;;;;7.49;100.00;101911.47;5049443;28;20047;-76
2022/11/10 06:13:12;;;;;;;32.58;5.95;;;;;;;7.52;100.00;101914.88;5060825;28;20183;-76
2022/11/10 06:15:56;;;;;;;19.55;5.75;;;;;;;7.57;100.00;101922.69;5059749;28;20051;-76
2022/11/10 06:18:40;;;;;;;36.58;6.97;;;;;;;7.44;100.00;101919.59;5061700;28;20694;-76
2022/11/10 06:21:24;;;;;;;35.00;8.48;;;;;;;7.44;100.00;101929.34;5058605;28;20082;-75
2022/11/10 06:24:09;;;;;;;31.50;7.38;;;;;;;7.48;100.00;101933.59;5058310;28;20043;-76
2022/11/10 06:26:53;;;;;;;27.55;6.03;;;;;;;7.41;100.00;101940.03;5059911;28;20086;-76
2022/11/10 06:29:37;;;;;;;25.38;7.20;;;;;;;7.42;100.00;101949.72;5058738;28;20079;-75
2022/11/10 06:32:21;;;;;;;24.38;6.13;;;;;;;7.43;100.00;101965.63;5062956;28;20102;-75
2022/11/10 06:35:05;;;;;;;25.27;5.82;;;;;;;7.40;100.00;101971.00;5060478;28;20043;-76
2022/11/10 06:38:08;;;;;;;29.35;8.15;;;;;;;7.46;100.00;101980.56;5060947;28;20067;-74
2022/11/10 06:40:52;;;;;;;29.35;5.53;;;;;;;7.44;100.00;101969.13;5056987;28;20197;-75
2022/11/10 06:43:36;;;;;;;24.35;5.65;;;;;;;7.43;100.00;101976.25;5060195;28;20827;-76
2022/11/10 06:46:20;;;;;;;22.00;5.28;;;;;;;7.49;100.00;101994.59;5066137;28;20193;-75
2022/11/10 06:49:04;;;;;;;22.50;6.25;;;;;;;7.57;100.00;101997.00;5059117;28;20622;-75
2022/11/10 06:51:48;;;;;;;23.55;5.85;;;;;;;7.48;100.00;102007.91;5057973;28;20083;-76
2022/11/10 06:54:32;;;;;;;34.65;5.80;;;;;;;7.51;100.00;102016.66;5061795;28;20075;-74
2022/11/10 06:57:16;;;;;;;32.95;6.43;;;;;;;7.42;100.00;102016.94;5061135;28;20221;-75
2022/11/10 07:00:00;;;;;;;24.42;6.68;;;;;;;7.50;100.00;102028.19;5061608;28;20051;-75
2022/11/10 07:02:44;;;;;;;29.30;7.10;;;;;;;7.51;100.00;102026.41;5061104;28;20079;-75
2022/11/10 07:05:29;;;;;;;52.92;7.80;;;;;;;7.52;100.00;102029.00;5049191;28;20147;-75
2022/11/10 07:08:15;;;;;;;21.50;7.75;;;;;;;7.57;100.00;102028.84;5061214;28;20098;-75
2022/11/10 07:10:59;;;;;;;30.42;7.50;;;;;;;7.62;100.00;102039.31;5063157;28;20083;-75
2022/11/10 07:13:43;;;;;;;26.42;7.88;;;;;;;7.66;100.00;102041.84;5061279;28;20114;-75
2022/11/10 07:16:27;;;;;;;26.42;6.80;;;;;;;7.70;100.00;102046.13;5052842;28;20063;-75
2022/11/10 07:19:11;;;;;;;34.42;7.57;;;;;;;7.68;100.00;102048.00;5063524;28;20206;-75
2022/11/10 07:21:55;;;;;;;31.45;9.23;;;;;;;7.82;100.00;102054.63;5060196;28;20118;-76
2022/11/10 07:24:39;;;;;;;34.38;6.15;;;;;;;7.78;100.00;102061.81;5062630;28;20103;-75
2022/11/10 07:27:23;;;;;;;28.48;6.63;;;;;;;7.86;100.00;102069.53;5059506;28;20135;-75
2022/11/10 07:30:07;;;;;;;22.60;6.22;;;;;;;7.95;100.00;102069.25;5058234;28;20102;-76
2022/11/10 07:33:06;;;;;;;17.08;5.85;;;;;;;7.94;100.00;102076.34;5054490;28;20099;-75
2022/11/10 07:35:54;;;;;;;39.10;7.72;;;;;;;7.99;100.00;102070.88;5037768;28;20067;-76
2022/11/10 07:38:38;;;;;;;29.80;5.63;;;;;;;8.05;100.00;102070.69;5057170;28;20055;-75
2022/11/10 07:41:22;;;;;;;23.50;5.65;;;;;;;8.08;100.00;102062.59;5059365;28;20519;-76
2022/11/10 07:44:06;;;;;;;28.52;6.68;;;;;;;8.18;100.00;102064.06;5056100;28;20374;-75
2022/11/10 07:46:50;;;;;;;37.10;8.57;;;;;;;8.22;100.00;102060.34;5055252;28;20132;-75
2022/11/10 07:49:34;;;;;;;29.58;6.03;;;;;;;8.27;100.00;102074.34;5061418;28;20052;-76
2022/11/10 07:52:18;;;;;;;24.42;6.57;;;;;;;8.32;100.00;102079.50;5053253;28;20209;-76
2022/11/10 07:55:03;;;;;;;29.55;6.90;;;;;;;8.41;100.00;102079.22;5059218;28;20158;-75
2022/11/10 07:57:47;;;;;;;30.92;6.68;;;;;;;8.46;100.00;102081.72;5034890;28;20918;-75
2022/11/10 08:00:32;;;;;;;29.38;5.38;;;;;;;8.47;100.00;102078.13;5057491;28;20562;-75
2022/11/10 08:03:19;;;;;;;29.02;6.03;;;;;;;8.52;100.00;102076.19;5043782;28;20051;-75
2022/11/10 08:06:04;;;;;;;26.58;6.15;;;;;;;8.61;100.00;102073.22;5058223;28;20458;-75
2022/11/10 08:08:47;;;;;;;36.75;7.05;;;;;;;8.70;100.00;102087.97;5063961;28;20559;-75
2022/11/10 08:11:31;;;;;;;18.42;6.25;;;;;;;8.74;100.00;102089.63;5046464;28;20934;-75
2022/11/10 08:14:15;;;;;;;25.55;7.32;;;;;;;8.82;100.00;102100.81;5063367;28;20845;-75
2022/11/10 08:16:59;;;;;;;34.13;8.98;;;;;;;8.87;100.00;102098.88;5063383;28;20051;-75
2022/11/10 08:19:43;;;;;;;25.10;7.43;;;;;;;9.01;100.00;102099.25;5057088;28;20079;-75
2022/11/10 08:22:27;;;;;;;39.20;6.72;;;;;;;9.01;100.00;102114.34;5062462;28;20075;-75
2022/11/10 08:25:11;;;;;;;29.83;7.03;;;;;;;9.09;100.00;102120.25;5059466;28;20072;-75
2022/11/10 08:28:00;;;;;;;29.63;7.88;;;;;;;9.16;100.00;102121.75;5058025;28;20071;-75
2022/11/10 08:30:46;;;;;;;25.20;7.03;;;;;;;9.22;100.00;102116.19;5058839;28;20139;-76
2022/11/10 08:33:30;;;;;;;34.28;8.10;;;;;;;9.31;100.00;102118.53;5061517;28;20099;-75
2022/11/10 08:36:14;;;;;;;19.98;5.47;;;;;;;9.39;100.00;102117.34;5056981;28;20048;-75
2022/11/10 08:38:58;;;;;;;23.83;6.53;;;;;;;9.43;100.00;102118.97;5059197;28;20055;-75
2022/11/10 08:41:42;;;;;;;22.27;5.72;;;;;;;9.50;100.00;102115.19;5053917;28;20110;-75
2022/11/10 08:44:26;;;;;;;30.55;6.65;;;;;;;9.62;100.00;102113.81;5045208;28;20051;-75
2022/11/10 08:47:10;;;;;;;28.60;6.22;;;;;;;9.71;100.00;102121.47;5029252;28;20465;-76
2022/11/10 08:49:54;;;;;;;20.05;6.40;;;;;;;9.75;100.00;102128.41;5040444;28;20759;-76
2022/11/10 08:52:38;;;;;;;28.55;6.28;;;;;;;9.94;100.00;102141.84;5041659;28;20409;-76
2022/11/10 08:55:22;;;;;;;17.52;4.65;;;;;;;10.04;100.00;102137.88;5041676;28;20055;-75
2022/11/10 08:58:08;;;;;;;21.33;5.40;;;;;;;10.07;100.00;102135.09;5042116;28;20079;-76
2022/11/10 09:00:53;;;;;;;26.65;5.10;;;;;;;10.13;100.00;102143.72;5040657;28;20126;-75
2022/11/10 09:03:37;;;;;;;36.15;6.47;;;;;;;10.25;100.00;102147.72;5035423;28;20043;-74
2022/11/10 09:06:21;;;;;;;23.88;5.80;;;;;;;10.37;100.00;102152.53;5036962;28;20144;-75
2022/11/10 09:09:06;;;;;;;23.42;5.65;;;;;;;10.42;100.00;102154.16;5020040;28;20071;-75
2022/11/10 09:11:50;;;;;;;23.73;6.65;;;;;;;10.42;100.00;102149.69;5025909;28;20156;-76
2022/11/10 09:14:34;;;;;;;20.00;5.22;;;;;;;10.43;100.00;102155.88;5041092;28;20150;-75
2022/11/10 09:17:18;;;;;;;22.23;4.88;;;;;;;10.39;100.00;102173.81;5041036;28;20111;-75
2022/11/10 09:20:03;;;;;;;17.92;4.80;;;;;;;10.51;100.00;102175.13;5039310;28;20095;-76
2022/11/10 09:22:47;;;;;;;30.00;6.20;;;;;;;10.47;100.00;102163.69;5035247;28;20114;-76
2022/11/10 09:25:31;;;;;;;18.30;4.80;;;;;;;10.53;100.00;102168.75;5030990;28;20099;-77
2022/11/10 09:28:16;;;;;;;20.63;5.95;;;;;;;10.60;100.00;102169.41;5040033;28;20146;-76
2022/11/10 09:31:00;;;;;;;15.80;5.20;;;;;;;10.75;100.00;102168.75;5040049;28;20052;-74
2022/11/10 09:33:44;;;;;;;25.65;5.85;;;;;;;10.85;100.00;102171.88;5033083;28;20083;-75
2022/11/10 09:36:28;;;;;;;18.48;5.20;;;;;;;10.79;100.00;102169.47;5040072;28;20106;-75
2022/11/10 09:39:14;;;;;;;19.50;4.68;;;;;;;10.99;100.00;102171.25;5033121;28;20148;-75
2022/11/10 09:41:57;;;;;;;27.85;6.32;;;;;;;11.06;100.00;102168.28;5039326;28;20132;-77
2022/11/10 09:44:50;;;;;;;27.52;5.07;;;;;;;11.17;100.00;102167.78;5037355;28;20183;-75
2022/11/10 09:47:46;;;;;;;31.25;6.30;;;;;;;11.36;100.00;102176.72;5045598;28;20060;-76
2022/11/10 09:50:43;;;;;;;24.42;6.30;;;;;;;11.32;100.00;102174.25;5053212;28;20102;-75
2022/11/10 09:53:35;;;;;;;23.63;4.57;;;;;;;11.46;100.00;102170.97;5050871;28;20165;-75
2022/11/10 09:56:36;;;;;;;21.10;4.03;;;;;;;11.46;100.00;102178.97;5057278;28;20065;-75
2022/11/10 09:59:26;;;;;;;24.27;5.22;;;;;;;11.47;100.00;102178.91;5056099;28;20148;-75
2022/11/10 10:02:40;;;;;;;19.67;4.65;;;;;;;11.58;100.00;102184.59;5054963;28;20116;-75
2022/11/10 10:06:02;;;;;;;10.85;4.10;;;;;;;11.61;100.00;102184.47;5055257;28;20074;-75
2022/11/10 10:09:35;;;;;;;28.85;6.00;;;;;;;11.77;100.00;102189.97;5054358;28;20046;-74
2022/11/10 10:12:36;;;;;;;19.90;5.47;;;;;;;11.83;100.00;102196.88;4976959;28;20081;-75
2022/11/10 10:15:24;;;;;;;18.50;5.20;;;;;;;11.84;100.00;102193.25;4993584;28;20471;-76
2022/11/10 10:18:27;;;;;;;23.02;5.75;;;;;;;11.91;100.00;102197.38;4979105;28;20213;-75
2022/11/10 10:21:28;;;;;;;33.28;5.80;;;;;;;11.92;100.00;102209.81;4994037;28;20080;-75
2022/11/10 10:24:19;;;;;;;24.13;4.93;;;;;;;12.07;100.00;102214.44;4993428;28;21024;-76
2022/11/10 10:27:05;;;;;;;26.17;4.65;;;;;;;12.13;100.00;102216.81;4994123;28;20576;-75
2022/11/10 10:29:49;;;;;;;20.90;5.03;;;;;;;12.07;100.00;102227.78;4993009;28;20088;-75
2022/11/10 10:32:33;;;;;;;16.17;5.53;;;;;;;12.10;100.00;102232.16;4993104;28;20056;-76
2022/11/10 10:35:18;;;;;;;15.57;4.43;;;;;;;12.22;100.00;102233.34;4993621;28;20189;-75
2022/11/10 10:38:05;;;;;;;34.40;5.43;;;;;;;12.34;100.00;102236.28;4997145;28;20056;-75
2022/11/10 10:40:50;;;;;;;21.48;6.15;;;;;;;12.36;100.00;102239.78;4997646;28;20796;-75
2022/11/10 10:43:34;;;;;;;19.40;4.65;;;;;;;12.39;100.00;102239.63;4997831;28;20048;-75
2022/11/10 10:46:23;;;;;;;11.43;3.63;;;;;;;12.32;100.00;102245.34;4998130;28;20064;-75
2022/11/10 10:49:19;;;;;;;27.13;4.88;;;;;;;12.33;100.00;102252.44;5032741;28;20156;-76
2022/11/10 10:52:13;;;;;;;16.63;5.18;;;;;;;12.44;100.00;102256.31;5059342;28;20694;-75
2022/11/10 10:55:06;;;;;;;14.75;4.95;;;;;;;12.40;100.00;102248.53;5056047;28;21015;-75
2022/11/10 10:57:59;;;;;;;22.40;5.25;;;;;;;12.44;100.00;102250.94;5058784;28;20140;-75
2022/11/10 11:00:46;;;;;;;17.42;5.03;;;;;;;12.49;100.00;102253.41;5061310;28;20106;-75
2022/11/10 11:03:45;;;;;;;22.85;4.50;;;;;;;12.70;100.00;102257.72;5059725;28;20732;-76
2022/11/10 11:06:31;;;;;;;20.77;4.00;;;;;;;12.60;100.00;102251.09;5061332;28;20051;-75
2022/11/10 11:09:21;;;;;;;17.08;3.40;;;;;;;12.72;100.00;102260.31;5060727;28;20075;-75
2022/11/10 11:12:27;;;;;;;24.73;4.07;;;;;;;12.72;100.00;102252.28;5055563;28;20362;-75
2022/11/10 11:15:27;;;;;;;20.15;4.22;;;;;;;13.07;100.00;102260.34;5041597;28;20118;-75
2022/11/10 11:18:14;;;;;;;25.83;6.10;;;;;;;12.95;100.00;102261.81;5060186;28;20765;-75
2022/11/10 11:21:01;;;;;;;16.95;5.20;;;;;;;13.08;100.00;102251.38;5058026;28;20353;-76
2022/11/10 11:24:10;;;;;;;18.90;5.13;;;;;;;13.32;100.00;102250.13;5055565;28;20079;-75
2022/11/10 11:27:23;;;;;;;16.50;3.90;;;;;;;13.42;100.00;102245.16;5060469;28;20503;-74
2022/11/10 11:30:26;;;;;;;17.20;3.67;;;;;;;13.31;100.00;102256.44;5042050;28;20067;-75
2022/11/10 11:33:21;;;;;;;17.50;3.40;;;;;;;13.31;100.00;102261.81;5044342;28;20413;-76
2022/11/10 11:36:15;;;;;;;24.30;5.03;;;;;;;13.45;100.00;102271.78;5058577;28;20876;-76
2022/11/10 11:39:08;;;;;;;21.02;3.88;;;;;;;13.71;100.00;102276.66;5061386;28;20051;-75
2022/11/10 11:42:16;;;;;;;16.58;3.38;;;;;;;13.92;100.00;102281.81;5061895;28;20146;-75
2022/11/10 11:45:30;;;;;;;12.48;3.33;;;;;;;13.96;100.00;102280.69;5062830;28;20128;-75
2022/11/10 11:48:39;;;;;;;22.58;4.18;;;;;;;13.75;100.00;102285.38;5059477;28;20056;-75
2022/11/10 11:51:51;;;;;;;26.73;4.57;;;;;;;13.80;100.00;102301.22;5058577;28;20086;-75
2022/11/10 11:55:21;;;;;;;20.75;4.05;;;;;;;14.04;100.00;102290.97;5058055;28;20043;-75
2022/11/10 11:58:31;;;;;;;14.50;3.33;;;;;;;14.14;100.00;102301.13;5027640;28;20042;-75
2022/11/10 12:01:42;;;;;;;24.30;3.45;;;;;;;14.37;100.00;102307.91;5061491;28;20110;-75
2022/11/10 12:04:41;;;;;;;21.40;4.07;;;;;;;14.31;100.00;102304.69;5062677;28;20051;-75
2022/11/10 12:07:41;;;;;;;16.75;2.97;;;;;;;14.37;100.00;102315.97;5040927;28;20618;-75
2022/11/10 12:10:54;;;;;;;13.40;4.78;;;;;;;14.51;100.00;102315.22;5050251;28;20047;-75
2022/11/10 12:14:04;;;;;;;12.60;2.70;;;;;;;14.75;100.00;102318.31;5037591;28;20114;-75
2022/11/10 12:17:03;;;;;;;20.13;4.50;;;;;;;14.63;100.00;102309.16;5036397;28;20699;-75
2022/11/10 12:19:57;;;;;;;17.88;3.97;;;;;;;14.83;100.00;102317.88;5061458;28;20098;-75
2022/11/10 12:23:12;;;;;;;13.13;2.42;;;;;;;14.99;100.00;102311.53;5051857;28;20052;-76
2022/11/10 12:26:18;;;;;;;11.80;2.72;;;;;;;14.73;100.00;102309.50;5060267;28;20128;-75
2022/11/10 12:29:02;;;;;;;8.10;2.90;;;;;;;14.80;100.00;102310.84;5062392;28;20595;-76
2022/11/10 12:31:51;;;;;;;14.38;3.22;;;;;;;14.79;98.33;102310.97;5040061;28;20095;-76
2022/11/10 12:34:39;;;;;;;20.00;2.97;;;;;;;14.81;99.52;102303.66;5058142;28;20110;-75
2022/11/10 12:37:32;;;;;;;14.02;2.88;;;;;;;14.79;98.52;102313.66;5058558;28;20106;-76
2022/11/10 12:40:21;;;;;;;12.85;2.83;;;;;;;14.77;99.12;102311.91;5040311;28;20600;-75
2022/11/10 12:43:12;;;;;;;17.38;3.25;;;;;;;14.73;98.70;102325.59;5043262;28;20634;-74
2022/11/10 12:46:00;;;;;;;21.30;4.97;;;;;;;14.63;98.73;102330.63;5059696;28;20059;-75
2022/11/10 12:49:16;;;;;;;16.67;3.85;;;;;;;14.38;100.00;102316.81;5054858;28;20055;-75
2022/11/10 12:52:21;;;;;;;10.38;2.75;;;;;;;14.54;100.00;102325.78;5057257;28;20055;-75
2022/11/10 12:55:10;;;;;;;13.73;3.70;;;;;;;14.39;100.00;102329.28;5057257;28;20118;-76
2022/11/10 12:57:54;;;;;;;13.30;2.90;;;;;;;14.62;100.00;102331.59;5055613;28;20106;-76
2022/11/10 13:00:42;;;;;;;10.52;2.40;;;;;;;14.73;100.00;102325.59;5055174;28;20187;-75
2022/11/10 13:03:36;;;;;;;9.32;3.38;;;;;;;14.85;99.56;102324.03;5053909;28;20059;-75
2022/11/10 13:06:31;;;;;;;9.05;2.35;;;;;;;14.92;99.12;102326.28;5040280;28;20043;-75